sensor_id;sensor_type;location;lat;lon;timestamp;P1;durP1;ratioP1;P2;durP2;ratioP2
22894;SDS011;11614;52.494;6.976;2023-06-05T00:01:40;8.43;;;5.27;;
22894;SDS011;11614;52.494;6.976;2023-06-05T00:04:06;8.87;;;4.63;;
22894;SDS011;11614;52.494;6.976;2023-06-05T00:06:33;8.90;;;4.43;;
22894;SDS011;11614;52.494;6.976;2023-06-05T00:08:58;8.03;;;4.80;;
22894;SDS011;11614;52.494;6.976;2023-06-05T00:11:24;8.70;;;4.97;;
22894;SDS011;11614;52.494;6.976;2023-06-05T00:13:50;10.43;;;4.87;;
22894;SDS011;11614;52.494;6.976;2023-06-05T00:16:16;8.80;;;5.30;;
22894;SDS011;11614;52.494;6.976;2023-06-05T00:18:42;8.90;;;5.10;;
22894;SDS011;11614;52.494;6.976;2023-06-05T00:21:12;9.80;;;5.70;;
22894;SDS011;11614;52.494;6.976;2023-06-05T00:23:38;9.27;;;4.30;;
22894;SDS011;11614;52.494;6.976;2023-06-05T00:26:04;9.53;;;5.17;;
22894;SDS011;11614;52.494;6.976;2023-06-05T00:28:29;9.17;;;5.53;;
22894;SDS011;11614;52.494;6.976;2023-06-05T00:30:55;8.90;;;5.33;;
22894;SDS011;11614;52.494;6.976;2023-06-05T00:33:21;16.90;;;5.63;;
22894;SDS011;11614;52.494;6.976;2023-06-05T00:35:47;12.87;;;5.97;;
22894;SDS011;11614;52.494;6.976;2023-06-05T00:38:13;11.10;;;5.97;;
22894;SDS011;11614;52.494;6.976;2023-06-05T00:40:39;8.00;;;5.03;;
22894;SDS011;11614;52.494;6.976;2023-06-05T00:43:05;8.13;;;5.27;;
22894;SDS011;11614;52.494;6.976;2023-06-05T00:45:31;7.60;;;5.20;;
22894;SDS011;11614;52.494;6.976;2023-06-05T00:47:58;10.17;;;5.63;;
22894;SDS011;11614;52.494;6.976;2023-06-05T00:50:24;9.70;;;5.60;;
22894;SDS011;11614;52.494;6.976;2023-06-05T00:52:50;8.43;;;5.57;;
22894;SDS011;11614;52.494;6.976;2023-06-05T00:55:16;9.20;;;5.77;;
22894;SDS011;11614;52.494;6.976;2023-06-05T00:57:42;11.37;;;6.00;;
22894;SDS011;11614;52.494;6.976;2023-06-05T01:00:10;10.90;;;6.53;;
22894;SDS011;11614;52.494;6.976;2023-06-05T01:02:39;9.23;;;5.87;;
22894;SDS011;11614;52.494;6.976;2023-06-05T01:05:05;10.53;;;5.93;;
22894;SDS011;11614;52.494;6.976;2023-06-05T01:07:32;10.47;;;6.70;;
22894;SDS011;11614;52.494;6.976;2023-06-05T01:09:59;9.73;;;6.20;;
22894;SDS011;11614;52.494;6.976;2023-06-05T01:12:28;9.57;;;5.73;;
22894;SDS011;11614;52.494;6.976;2023-06-05T01:15:01;12.63;;;6.67;;
22894;SDS011;11614;52.494;6.976;2023-06-05T01:17:27;12.63;;;6.63;;
22894;SDS011;11614;52.494;6.976;2023-06-05T01:19:55;13.20;;;7.87;;
22894;SDS011;11614;52.494;6.976;2023-06-05T01:22:23;11.17;;;7.90;;
22894;SDS011;11614;52.494;6.976;2023-06-05T01:24:50;12.67;;;7.10;;
22894;SDS011;11614;52.494;6.976;2023-06-05T01:33:29;12.73;;;7.03;;
22894;SDS011;11614;52.494;6.976;2023-06-05T01:35:59;12.17;;;7.53;;
22894;SDS011;11614;52.494;6.976;2023-06-05T01:38:30;13.80;;;7.20;;
22894;SDS011;11614;52.494;6.976;2023-06-05T01:40:58;11.93;;;7.23;;
22894;SDS011;11614;52.494;6.976;2023-06-05T01:43:24;14.50;;;7.47;;
22894;SDS011;11614;52.494;6.976;2023-06-05T01:45:50;11.53;;;7.67;;
22894;SDS011;11614;52.494;6.976;2023-06-05T01:48:17;12.37;;;7.47;;
22894;SDS011;11614;52.494;6.976;2023-06-05T01:50:42;12.57;;;7.40;;
22894;SDS011;11614;52.494;6.976;2023-06-05T01:53:08;12.03;;;7.37;;
22894;SDS011;11614;52.494;6.976;2023-06-05T01:55:36;10.80;;;6.57;;
22894;SDS011;11614;52.494;6.976;2023-06-05T01:58:04;16.93;;;8.27;;
22894;SDS011;11614;52.494;6.976;2023-06-05T02:00:30;14.53;;;7.47;;
22894;SDS011;11614;52.494;6.976;2023-06-05T02:02:56;12.93;;;7.97;;
22894;SDS011;11614;52.494;6.976;2023-06-05T02:05:22;13.97;;;7.30;;
22894;SDS011;11614;52.494;6.976;2023-06-05T02:07:49;12.43;;;6.90;;
22894;SDS011;11614;52.494;6.976;2023-06-05T02:10:19;14.40;;;8.57;;
22894;SDS011;11614;52.494;6.976;2023-06-05T02:12:45;13.63;;;7.97;;
22894;SDS011;11614;52.494;6.976;2023-06-05T02:15:11;14.33;;;8.80;;
22894;SDS011;11614;52.494;6.976;2023-06-05T02:17:44;11.77;;;7.80;;
22894;SDS011;11614;52.494;6.976;2023-06-05T02:20:14;14.07;;;8.00;;
22894;SDS011;11614;52.494;6.976;2023-06-05T02:22:40;12.43;;;6.60;;
22894;SDS011;11614;52.494;6.976;2023-06-05T02:25:07;15.13;;;8.60;;
22894;SDS011;11614;52.494;6.976;2023-06-05T02:27:33;15.63;;;8.50;;
22894;SDS011;11614;52.494;6.976;2023-06-05T02:29:59;14.90;;;7.77;;
22894;SDS011;11614;52.494;6.976;2023-06-05T02:32:25;13.90;;;7.53;;
22894;SDS011;11614;52.494;6.976;2023-06-05T02:34:53;13.93;;;7.47;;
22894;SDS011;11614;52.494;6.976;2023-06-05T02:37:21;18.57;;;8.53;;
22894;SDS011;11614;52.494;6.976;2023-06-05T02:39:47;11.27;;;7.37;;
22894;SDS011;11614;52.494;6.976;2023-06-05T02:42:13;12.67;;;7.97;;
22894;SDS011;11614;52.494;6.976;2023-06-05T02:44:39;15.63;;;7.77;;
22894;SDS011;11614;52.494;6.976;2023-06-05T02:47:05;12.20;;;7.53;;
22894;SDS011;11614;52.494;6.976;2023-06-05T02:49:31;15.27;;;7.70;;
22894;SDS011;11614;52.494;6.976;2023-06-05T02:51:58;14.73;;;9.03;;
22894;SDS011;11614;52.494;6.976;2023-06-05T02:54:25;15.33;;;8.63;;
22894;SDS011;11614;52.494;6.976;2023-06-05T02:56:53;13.97;;;8.27;;
22894;SDS011;11614;52.494;6.976;2023-06-05T02:59:19;15.50;;;8.67;;
22894;SDS011;11614;52.494;6.976;2023-06-05T03:01:50;13.67;;;7.73;;
22894;SDS011;11614;52.494;6.976;2023-06-05T03:04:16;16.37;;;8.27;;
22894;SDS011;11614;52.494;6.976;2023-06-05T03:06:49;16.57;;;8.40;;
22894;SDS011;11614;52.494;6.976;2023-06-05T03:09:15;16.20;;;8.47;;
22894;SDS011;11614;52.494;6.976;2023-06-05T03:11:41;15.47;;;8.67;;
22894;SDS011;11614;52.494;6.976;2023-06-05T03:14:08;18.53;;;9.60;;
22894;SDS011;11614;52.494;6.976;2023-06-05T03:16:34;16.60;;;8.73;;
22894;SDS011;11614;52.494;6.976;2023-06-05T03:19:06;16.67;;;9.17;;
22894;SDS011;11614;52.494;6.976;2023-06-05T03:21:32;16.63;;;9.83;;
22894;SDS011;11614;52.494;6.976;2023-06-05T03:23:58;20.27;;;9.73;;
22894;SDS011;11614;52.494;6.976;2023-06-05T03:26:24;12.20;;;7.27;;
22894;SDS011;11614;52.494;6.976;2023-06-05T03:28:50;17.17;;;8.90;;
22894;SDS011;11614;52.494;6.976;2023-06-05T03:31:16;17.60;;;8.33;;
22894;SDS011;11614;52.494;6.976;2023-06-05T03:33:43;17.00;;;9.40;;
22894;SDS011;11614;52.494;6.976;2023-06-05T03:36:09;16.67;;;8.50;;
22894;SDS011;11614;52.494;6.976;2023-06-05T03:38:36;15.73;;;9.43;;
22894;SDS011;11614;52.494;6.976;2023-06-05T03:41:01;17.63;;;9.43;;
22894;SDS011;11614;52.494;6.976;2023-06-05T03:43:30;15.27;;;9.03;;
22894;SDS011;11614;52.494;6.976;2023-06-05T03:45:56;15.97;;;8.70;;
22894;SDS011;11614;52.494;6.976;2023-06-05T03:48:21;16.37;;;8.73;;
22894;SDS011;11614;52.494;6.976;2023-06-05T03:50:47;16.67;;;9.83;;
22894;SDS011;11614;52.494;6.976;2023-06-05T03:53:16;15.20;;;8.83;;
22894;SDS011;11614;52.494;6.976;2023-06-05T03:55:43;14.87;;;8.37;;
22894;SDS011;11614;52.494;6.976;2023-06-05T03:58:11;15.93;;;8.90;;
22894;SDS011;11614;52.494;6.976;2023-06-05T04:00:41;15.73;;;8.97;;
22894;SDS011;11614;52.494;6.976;2023-06-05T04:03:08;16.27;;;8.70;;
22894;SDS011;11614;52.494;6.976;2023-06-05T04:05:35;16.40;;;8.63;;
22894;SDS011;11614;52.494;6.976;2023-06-05T04:08:02;16.90;;;8.27;;
22894;SDS011;11614;52.494;6.976;2023-06-05T04:10:28;13.90;;;7.93;;
22894;SDS011;11614;52.494;6.976;2023-06-05T04:12:54;16.27;;;8.80;;
22894;SDS011;11614;52.494;6.976;2023-06-05T04:15:22;14.87;;;8.30;;
22894;SDS011;11614;52.494;6.976;2023-06-05T04:17:48;13.40;;;8.70;;
22894;SDS011;11614;52.494;6.976;2023-06-05T04:20:14;18.33;;;8.57;;
22894;SDS011;11614;52.494;6.976;2023-06-05T04:22:40;17.60;;;8.43;;
22894;SDS011;11614;52.494;6.976;2023-06-05T04:25:06;17.30;;;8.97;;
22894;SDS011;11614;52.494;6.976;2023-06-05T04:27:33;16.40;;;8.03;;
22894;SDS011;11614;52.494;6.976;2023-06-05T04:29:58;15.37;;;9.03;;
22894;SDS011;11614;52.494;6.976;2023-06-05T04:32:24;19.57;;;8.80;;
22894;SDS011;11614;52.494;6.976;2023-06-05T04:34:50;17.73;;;8.90;;
22894;SDS011;11614;52.494;6.976;2023-06-05T04:37:18;17.10;;;7.97;;
22894;SDS011;11614;52.494;6.976;2023-06-05T04:39:43;12.27;;;7.67;;
22894;SDS011;11614;52.494;6.976;2023-06-05T04:42:09;15.67;;;7.83;;
22894;SDS011;11614;52.494;6.976;2023-06-05T04:44:35;12.10;;;7.13;;
22894;SDS011;11614;52.494;6.976;2023-06-05T04:47:03;12.17;;;6.73;;
22894;SDS011;11614;52.494;6.976;2023-06-05T04:49:31;11.17;;;6.40;;
22894;SDS011;11614;52.494;6.976;2023-06-05T04:51:56;15.70;;;8.30;;
22894;SDS011;11614;52.494;6.976;2023-06-05T04:54:24;13.50;;;6.37;;
22894;SDS011;11614;52.494;6.976;2023-06-05T04:56:50;11.30;;;6.30;;
22894;SDS011;11614;52.494;6.976;2023-06-05T04:59:17;8.37;;;5.93;;
22894;SDS011;11614;52.494;6.976;2023-06-05T05:01:44;8.60;;;6.00;;
22894;SDS011;11614;52.494;6.976;2023-06-05T05:04:09;10.77;;;5.70;;
22894;SDS011;11614;52.494;6.976;2023-06-05T05:06:36;12.50;;;6.10;;
22894;SDS011;11614;52.494;6.976;2023-06-05T05:09:03;8.43;;;5.00;;
22894;SDS011;11614;52.494;6.976;2023-06-05T05:11:29;11.57;;;5.50;;
22894;SDS011;11614;52.494;6.976;2023-06-05T05:13:55;7.90;;;5.47;;
22894;SDS011;11614;52.494;6.976;2023-06-05T05:16:21;10.33;;;5.80;;
22894;SDS011;11614;52.494;6.976;2023-06-05T05:18:47;10.03;;;5.67;;
22894;SDS011;11614;52.494;6.976;2023-06-05T05:21:13;8.83;;;6.07;;
22894;SDS011;11614;52.494;6.976;2023-06-05T05:23:38;9.50;;;5.83;;
22894;SDS011;11614;52.494;6.976;2023-06-05T05:26:05;9.27;;;6.03;;
22894;SDS011;11614;52.494;6.976;2023-06-05T05:28:31;13.20;;;6.10;;
22894;SDS011;11614;52.494;6.976;2023-06-05T05:30:57;8.60;;;5.40;;
22894;SDS011;11614;52.494;6.976;2023-06-05T05:33:23;7.23;;;4.97;;
22894;SDS011;11614;52.494;6.976;2023-06-05T05:35:49;9.53;;;5.93;;
22894;SDS011;11614;52.494;6.976;2023-06-05T05:38:15;9.23;;;5.17;;
22894;SDS011;11614;52.494;6.976;2023-06-05T05:40:41;9.20;;;5.10;;
22894;SDS011;11614;52.494;6.976;2023-06-05T05:43:07;8.17;;;4.77;;
22894;SDS011;11614;52.494;6.976;2023-06-05T05:45:33;7.53;;;5.03;;
22894;SDS011;11614;52.494;6.976;2023-06-05T05:47:58;8.33;;;5.07;;
22894;SDS011;11614;52.494;6.976;2023-06-05T05:50:24;9.23;;;5.27;;
22894;SDS011;11614;52.494;6.976;2023-06-05T05:52:50;5.93;;;4.47;;
22894;SDS011;11614;52.494;6.976;2023-06-05T05:55:18;8.10;;;4.47;;
22894;SDS011;11614;52.494;6.976;2023-06-05T05:57:43;6.40;;;4.73;;
22894;SDS011;11614;52.494;6.976;2023-06-05T06:00:09;9.65;;;5.40;;
22894;SDS011;11614;52.494;6.976;2023-06-05T06:02:37;9.90;;;5.00;;
22894;SDS011;11614;52.494;6.976;2023-06-05T06:05:06;8.02;;;4.70;;
22894;SDS011;11614;52.494;6.976;2023-06-05T06:07:32;7.57;;;4.47;;
22894;SDS011;11614;52.494;6.976;2023-06-05T06:09:58;6.63;;;4.15;;
22894;SDS011;11614;52.494;6.976;2023-06-05T06:12:24;7.97;;;5.20;;
22894;SDS011;11614;52.494;6.976;2023-06-05T06:14:50;7.03;;;5.18;;
22894;SDS011;11614;52.494;6.976;2023-06-05T06:17:16;8.55;;;5.10;;
22894;SDS011;11614;52.494;6.976;2023-06-05T06:19:42;7.05;;;5.22;;
22894;SDS011;11614;52.494;6.976;2023-06-05T06:22:08;6.85;;;4.70;;
22894;SDS011;11614;52.494;6.976;2023-06-05T06:24:40;8.57;;;4.78;;
22894;SDS011;11614;52.494;6.976;2023-06-05T06:27:06;8.50;;;5.20;;
22894;SDS011;11614;52.494;6.976;2023-06-05T06:29:34;8.23;;;4.35;;
22894;SDS011;11614;52.494;6.976;2023-06-05T06:32:00;5.63;;;4.63;;
22894;SDS011;11614;52.494;6.976;2023-06-05T06:34:26;6.60;;;4.80;;
22894;SDS011;11614;52.494;6.976;2023-06-05T06:36:52;7.70;;;4.30;;
22894;SDS011;11614;52.494;6.976;2023-06-05T06:39:17;6.03;;;4.60;;
22894;SDS011;11614;52.494;6.976;2023-06-05T06:41:43;6.38;;;4.43;;
22894;SDS011;11614;52.494;6.976;2023-06-05T06:44:09;6.20;;;4.25;;
22894;SDS011;11614;52.494;6.976;2023-06-05T06:46:36;7.25;;;4.43;;
22894;SDS011;11614;52.494;6.976;2023-06-05T06:49:02;5.80;;;3.88;;
22894;SDS011;11614;52.494;6.976;2023-06-05T06:51:28;5.32;;;3.95;;
22894;SDS011;11614;52.494;6.976;2023-06-05T06:53:54;5.55;;;4.00;;
22894;SDS011;11614;52.494;6.976;2023-06-05T06:56:20;7.53;;;4.70;;
22894;SDS011;11614;52.494;6.976;2023-06-05T06:58:46;6.20;;;4.88;;
22894;SDS011;11614;52.494;6.976;2023-06-05T07:01:13;5.18;;;4.43;;
22894;SDS011;11614;52.494;6.976;2023-06-05T07:03:40;9.07;;;5.50;;
22894;SDS011;11614;52.494;6.976;2023-06-05T07:06:06;6.05;;;4.50;;
22894;SDS011;11614;52.494;6.976;2023-06-05T07:08:33;6.72;;;4.38;;
22894;SDS011;11614;52.494;6.976;2023-06-05T07:10:59;7.18;;;4.75;;
22894;SDS011;11614;52.494;6.976;2023-06-05T07:13:24;7.20;;;4.20;;
22894;SDS011;11614;52.494;6.976;2023-06-05T07:15:51;6.50;;;4.43;;
22894;SDS011;11614;52.494;6.976;2023-06-05T07:18:17;7.80;;;4.95;;
22894;SDS011;11614;52.494;6.976;2023-06-05T07:20:44;8.52;;;6.05;;
22894;SDS011;11614;52.494;6.976;2023-06-05T07:23:10;7.85;;;4.13;;
22894;SDS011;11614;52.494;6.976;2023-06-05T07:25:36;6.72;;;5.22;;
22894;SDS011;11614;52.494;6.976;2023-06-05T07:28:05;6.85;;;4.82;;
22894;SDS011;11614;52.494;6.976;2023-06-05T07:30:31;5.60;;;4.68;;
22894;SDS011;11614;52.494;6.976;2023-06-05T07:32:57;6.47;;;4.47;;
22894;SDS011;11614;52.494;6.976;2023-06-05T07:35:23;6.95;;;4.47;;
22894;SDS011;11614;52.494;6.976;2023-06-05T07:37:49;8.02;;;5.45;;
22894;SDS011;11614;52.494;6.976;2023-06-05T07:40:15;5.88;;;4.57;;
22894;SDS011;11614;52.494;6.976;2023-06-05T07:42:42;5.38;;;4.72;;
22894;SDS011;11614;52.494;6.976;2023-06-05T07:45:08;7.50;;;5.50;;
22894;SDS011;11614;52.494;6.976;2023-06-05T07:47:35;6.57;;;4.82;;
22894;SDS011;11614;52.494;6.976;2023-06-05T07:50:01;7.68;;;5.32;;
22894;SDS011;11614;52.494;6.976;2023-06-05T07:52:32;4.95;;;4.45;;
22894;SDS011;11614;52.494;6.976;2023-06-05T07:54:58;8.10;;;4.90;;
22894;SDS011;11614;52.494;6.976;2023-06-05T07:57:24;5.93;;;5.05;;
22894;SDS011;11614;52.494;6.976;2023-06-05T07:59:50;6.40;;;5.75;;
22894;SDS011;11614;52.494;6.976;2023-06-05T08:02:19;5.70;;;4.47;;
22894;SDS011;11614;52.494;6.976;2023-06-05T08:04:45;6.85;;;4.70;;
22894;SDS011;11614;52.494;6.976;2023-06-05T08:07:11;6.28;;;4.63;;
22894;SDS011;11614;52.494;6.976;2023-06-05T08:09:37;6.60;;;5.20;;
22894;SDS011;11614;52.494;6.976;2023-06-05T08:12:04;6.18;;;5.25;;
22894;SDS011;11614;52.494;6.976;2023-06-05T08:14:30;9.25;;;6.28;;
22894;SDS011;11614;52.494;6.976;2023-06-05T08:16:56;5.13;;;4.63;;
22894;SDS011;11614;52.494;6.976;2023-06-05T08:19:22;9.30;;;5.43;;
22894;SDS011;11614;52.494;6.976;2023-06-05T08:21:52;6.38;;;4.82;;
22894;SDS011;11614;52.494;6.976;2023-06-05T08:24:21;5.90;;;3.75;;
22894;SDS011;11614;52.494;6.976;2023-06-05T08:26:48;7.57;;;4.95;;
22894;SDS011;11614;52.494;6.976;2023-06-05T08:29:14;7.05;;;4.65;;
22894;SDS011;11614;52.494;6.976;2023-06-05T08:31:40;6.30;;;4.63;;
22894;SDS011;11614;52.494;6.976;2023-06-05T08:34:08;6.20;;;4.20;;
22894;SDS011;11614;52.494;6.976;2023-06-05T08:36:35;7.07;;;4.75;;
22894;SDS011;11614;52.494;6.976;2023-06-05T08:39:01;6.05;;;5.07;;
22894;SDS011;11614;52.494;6.976;2023-06-05T08:41:28;9.38;;;5.95;;
22894;SDS011;11614;52.494;6.976;2023-06-05T08:43:58;5.85;;;5.03;;
22894;SDS011;11614;52.494;6.976;2023-06-05T08:46:26;6.60;;;5.85;;
22894;SDS011;11614;52.494;6.976;2023-06-05T08:48:53;5.90;;;5.30;;
22894;SDS011;11614;52.494;6.976;2023-06-05T08:51:20;6.00;;;3.63;;
22894;SDS011;11614;52.494;6.976;2023-06-05T08:53:51;5.40;;;4.47;;
22894;SDS011;11614;52.494;6.976;2023-06-05T08:56:17;6.97;;;5.47;;
22894;SDS011;11614;52.494;6.976;2023-06-05T08:58:43;7.93;;;4.00;;
22894;SDS011;11614;52.494;6.976;2023-06-05T09:01:10;6.80;;;5.60;;
22894;SDS011;11614;52.494;6.976;2023-06-05T09:03:36;9.55;;;5.68;;
22894;SDS011;11614;52.494;6.976;2023-06-05T09:06:02;6.88;;;5.63;;
22894;SDS011;11614;52.494;6.976;2023-06-05T09:08:30;5.47;;;4.53;;
22894;SDS011;11614;52.494;6.976;2023-06-05T09:13:44;7.40;;;5.03;;
22894;SDS011;11614;52.494;6.976;2023-06-05T09:16:11;6.97;;;4.43;;
22894;SDS011;11614;52.494;6.976;2023-06-05T09:18:40;7.22;;;6.22;;
22894;SDS011;11614;52.494;6.976;2023-06-05T09:21:17;7.65;;;5.50;;
22894;SDS011;11614;52.494;6.976;2023-06-05T09:23:43;6.28;;;5.68;;
22894;SDS011;11614;52.494;6.976;2023-06-05T09:26:11;7.30;;;4.90;;
22894;SDS011;11614;52.494;6.976;2023-06-05T09:29:00;7.75;;;5.50;;
22894;SDS011;11614;52.494;6.976;2023-06-05T09:31:27;5.88;;;5.22;;
22894;SDS011;11614;52.494;6.976;2023-06-05T09:34:05;7.88;;;6.13;;
22894;SDS011;11614;52.494;6.976;2023-06-05T09:36:31;7.22;;;5.35;;
22894;SDS011;11614;52.494;6.976;2023-06-05T09:38:59;7.10;;;5.05;;
22894;SDS011;11614;52.494;6.976;2023-06-05T09:41:42;7.15;;;5.00;;
22894;SDS011;11614;52.494;6.976;2023-06-05T09:44:09;5.53;;;5.03;;
22894;SDS011;11614;52.494;6.976;2023-06-05T09:46:42;5.28;;;4.72;;
22894;SDS011;11614;52.494;6.976;2023-06-05T09:49:15;5.97;;;4.47;;
22894;SDS011;11614;52.494;6.976;2023-06-05T09:51:44;6.35;;;4.47;;
22894;SDS011;11614;52.494;6.976;2023-06-05T09:54:12;8.15;;;5.40;;
22894;SDS011;11614;52.494;6.976;2023-06-05T09:56:41;6.38;;;4.30;;
22894;SDS011;11614;52.494;6.976;2023-06-05T09:59:07;5.93;;;4.43;;
22894;SDS011;11614;52.494;6.976;2023-06-05T10:01:36;6.88;;;4.60;;
22894;SDS011;11614;52.494;6.976;2023-06-05T10:04:06;4.40;;;3.97;;
22894;SDS011;11614;52.494;6.976;2023-06-05T10:06:33;7.85;;;4.97;;
22894;SDS011;11614;52.494;6.976;2023-06-05T10:09:00;6.65;;;4.35;;
22894;SDS011;11614;52.494;6.976;2023-06-05T10:11:26;9.00;;;4.97;;
22894;SDS011;11614;52.494;6.976;2023-06-05T10:13:53;7.32;;;5.53;;
22894;SDS011;11614;52.494;6.976;2023-06-05T10:16:19;6.60;;;5.05;;
22894;SDS011;11614;52.494;6.976;2023-06-05T10:18:46;5.60;;;3.90;;
22894;SDS011;11614;52.494;6.976;2023-06-05T10:21:15;8.18;;;4.70;;
22894;SDS011;11614;52.494;6.976;2023-06-05T10:23:45;4.38;;;3.83;;
22894;SDS011;11614;52.494;6.976;2023-06-05T10:31:42;5.45;;;4.70;;
22894;SDS011;11614;52.494;6.976;2023-06-05T10:34:13;5.15;;;3.72;;
22894;SDS011;11614;52.494;6.976;2023-06-05T10:39:10;5.22;;;4.38;;
22894;SDS011;11614;52.494;6.976;2023-06-05T10:41:37;4.80;;;3.60;;
22894;SDS011;11614;52.494;6.976;2023-06-05T10:44:03;4.57;;;3.30;;
22894;SDS011;11614;52.494;6.976;2023-06-05T10:46:34;6.53;;;4.63;;
22894;SDS011;11614;52.494;6.976;2023-06-05T10:54:02;5.57;;;4.97;;
22894;SDS011;11614;52.494;6.976;2023-06-05T10:59:14;5.78;;;4.63;;
22894;SDS011;11614;52.494;6.976;2023-06-05T11:01:40;6.57;;;3.90;;
22894;SDS011;11614;52.494;6.976;2023-06-05T11:04:06;4.20;;;3.80;;
22894;SDS011;11614;52.494;6.976;2023-06-05T11:06:33;5.80;;;4.10;;
22894;SDS011;11614;52.494;6.976;2023-06-05T11:09:08;6.13;;;3.90;;
22894;SDS011;11614;52.494;6.976;2023-06-05T11:14:45;7.03;;;5.28;;
22894;SDS011;11614;52.494;6.976;2023-06-05T11:17:28;5.38;;;4.53;;
22894;SDS011;11614;52.494;6.976;2023-06-05T11:19:54;8.10;;;4.05;;
22894;SDS011;11614;52.494;6.976;2023-06-05T11:22:20;4.43;;;4.03;;
22894;SDS011;11614;52.494;6.976;2023-06-05T11:24:46;4.38;;;4.00;;
22894;SDS011;11614;52.494;6.976;2023-06-05T11:27:44;4.28;;;3.75;;
22894;SDS011;11614;52.494;6.976;2023-06-05T11:30:14;6.07;;;4.03;;
22894;SDS011;11614;52.494;6.976;2023-06-05T11:32:41;4.88;;;4.07;;
22894;SDS011;11614;52.494;6.976;2023-06-05T11:35:08;6.22;;;3.90;;
22894;SDS011;11614;52.494;6.976;2023-06-05T11:37:34;5.20;;;4.15;;
22894;SDS011;11614;52.494;6.976;2023-06-05T11:40:03;4.63;;;4.05;;
22894;SDS011;11614;52.494;6.976;2023-06-05T11:42:40;5.05;;;4.20;;
22894;SDS011;11614;52.494;6.976;2023-06-05T11:45:10;5.80;;;4.15;;
22894;SDS011;11614;52.494;6.976;2023-06-05T11:47:36;4.60;;;3.08;;
22894;SDS011;11614;52.494;6.976;2023-06-05T11:50:08;5.53;;;4.07;;
22894;SDS011;11614;52.494;6.976;2023-06-05T11:52:35;4.45;;;3.70;;
22894;SDS011;11614;52.494;6.976;2023-06-05T11:55:14;5.30;;;3.63;;
22894;SDS011;11614;52.494;6.976;2023-06-05T11:57:41;4.95;;;4.05;;
22894;SDS011;11614;52.494;6.976;2023-06-05T12:00:08;4.65;;;3.50;;
22894;SDS011;11614;52.494;6.976;2023-06-05T12:02:36;4.68;;;3.70;;
22894;SDS011;11614;52.494;6.976;2023-06-05T12:05:02;5.45;;;3.67;;
22894;SDS011;11614;52.494;6.976;2023-06-05T12:07:28;4.55;;;3.42;;
22894;SDS011;11614;52.494;6.976;2023-06-05T12:09:54;6.50;;;3.38;;
22894;SDS011;11614;52.494;6.976;2023-06-05T12:12:20;4.50;;;3.88;;
22894;SDS011;11614;52.494;6.976;2023-06-05T12:14:46;5.30;;;4.80;;
22894;SDS011;11614;52.494;6.976;2023-06-05T12:17:12;4.40;;;4.00;;
22894;SDS011;11614;52.494;6.976;2023-06-05T12:19:38;5.85;;;3.72;;
22894;SDS011;11614;52.494;6.976;2023-06-05T12:22:06;4.93;;;3.97;;
22894;SDS011;11614;52.494;6.976;2023-06-05T12:24:32;4.10;;;3.70;;
22894;SDS011;11614;52.494;6.976;2023-06-05T12:26:59;4.85;;;4.35;;
22894;SDS011;11614;52.494;6.976;2023-06-05T12:29:27;4.00;;;3.70;;
22894;SDS011;11614;52.494;6.976;2023-06-05T12:31:53;5.85;;;3.85;;
22894;SDS011;11614;52.494;6.976;2023-06-05T12:37:06;5.07;;;3.58;;
22894;SDS011;11614;52.494;6.976;2023-06-05T12:39:33;5.57;;;4.60;;
22894;SDS011;11614;52.494;6.976;2023-06-05T12:41:59;5.15;;;4.65;;
22894;SDS011;11614;52.494;6.976;2023-06-05T12:44:25;4.38;;;3.97;;
22894;SDS011;11614;52.494;6.976;2023-06-05T12:46:51;4.07;;;3.67;;
22894;SDS011;11614;52.494;6.976;2023-06-05T12:49:17;3.65;;;3.30;;
22894;SDS011;11614;52.494;6.976;2023-06-05T12:51:43;4.95;;;3.58;;
22894;SDS011;11614;52.494;6.976;2023-06-05T12:54:09;6.28;;;3.90;;
22894;SDS011;11614;52.494;6.976;2023-06-05T12:56:36;6.65;;;4.00;;
22894;SDS011;11614;52.494;6.976;2023-06-05T12:59:02;5.68;;;4.30;;
22894;SDS011;11614;52.494;6.976;2023-06-05T13:01:28;5.13;;;4.40;;
22894;SDS011;11614;52.494;6.976;2023-06-05T13:03:54;6.35;;;3.83;;
22894;SDS011;11614;52.494;6.976;2023-06-05T13:06:20;3.95;;;3.42;;
22894;SDS011;11614;52.494;6.976;2023-06-05T13:08:46;3.70;;;3.40;;
22894;SDS011;11614;52.494;6.976;2023-06-05T13:11:13;5.75;;;3.97;;
22894;SDS011;11614;52.494;6.976;2023-06-05T13:13:39;4.25;;;3.60;;
22894;SDS011;11614;52.494;6.976;2023-06-05T13:16:05;4.18;;;3.78;;
22894;SDS011;11614;52.494;6.976;2023-06-05T13:18:33;4.93;;;3.80;;
22894;SDS011;11614;52.494;6.976;2023-06-05T13:20:59;5.75;;;4.18;;
22894;SDS011;11614;52.494;6.976;2023-06-05T13:23:25;7.75;;;4.15;;
22894;SDS011;11614;52.494;6.976;2023-06-05T13:25:52;3.33;;;3.03;;
22894;SDS011;11614;52.494;6.976;2023-06-05T13:28:18;5.78;;;3.65;;
22894;SDS011;11614;52.494;6.976;2023-06-05T13:30:44;4.72;;;4.05;;
22894;SDS011;11614;52.494;6.976;2023-06-05T13:33:11;3.70;;;3.40;;
22894;SDS011;11614;52.494;6.976;2023-06-05T13:35:37;3.92;;;3.38;;
22894;SDS011;11614;52.494;6.976;2023-06-05T13:38:03;5.18;;;3.67;;
22894;SDS011;11614;52.494;6.976;2023-06-05T13:40:30;12.50;;;9.73;;
22894;SDS011;11614;52.494;6.976;2023-06-05T13:42:57;8.35;;;4.03;;
22894;SDS011;11614;52.494;6.976;2023-06-05T13:45:23;3.65;;;3.10;;
22894;SDS011;11614;52.494;6.976;2023-06-05T13:47:49;4.75;;;3.22;;
22894;SDS011;11614;52.494;6.976;2023-06-05T13:50:16;4.93;;;3.50;;
22894;SDS011;11614;52.494;6.976;2023-06-05T13:52:42;4.72;;;3.13;;
22894;SDS011;11614;52.494;6.976;2023-06-05T13:55:08;3.75;;;3.38;;
22894;SDS011;11614;52.494;6.976;2023-06-05T13:57:34;3.08;;;2.75;;
22894;SDS011;11614;52.494;6.976;2023-06-05T14:00:00;3.10;;;2.67;;
22894;SDS011;11614;52.494;6.976;2023-06-05T14:02:27;4.10;;;2.80;;
22894;SDS011;11614;52.494;6.976;2023-06-05T14:04:53;4.22;;;2.90;;
22894;SDS011;11614;52.494;6.976;2023-06-05T14:07:19;3.45;;;2.80;;
22894;SDS011;11614;52.494;6.976;2023-06-05T14:09:45;4.00;;;2.60;;
22894;SDS011;11614;52.494;6.976;2023-06-05T14:12:12;4.28;;;2.55;;
22894;SDS011;11614;52.494;6.976;2023-06-05T14:14:38;3.00;;;2.70;;
22894;SDS011;11614;52.494;6.976;2023-06-05T14:17:05;2.35;;;2.15;;
22894;SDS011;11614;52.494;6.976;2023-06-05T14:19:31;3.10;;;2.80;;
22894;SDS011;11614;52.494;6.976;2023-06-05T14:21:57;3.28;;;2.97;;
22894;SDS011;11614;52.494;6.976;2023-06-05T14:24:24;3.55;;;3.22;;
22894;SDS011;11614;52.494;6.976;2023-06-05T14:26:50;3.42;;;3.13;;
22894;SDS011;11614;52.494;6.976;2023-06-05T14:29:16;3.22;;;3.03;;
22894;SDS011;11614;52.494;6.976;2023-06-05T14:31:42;3.83;;;3.40;;
22894;SDS011;11614;52.494;6.976;2023-06-05T14:34:08;4.53;;;3.40;;
22894;SDS011;11614;52.494;6.976;2023-06-05T14:36:34;3.92;;;3.42;;
22894;SDS011;11614;52.494;6.976;2023-06-05T14:39:01;2.63;;;2.42;;
22894;SDS011;11614;52.494;6.976;2023-06-05T14:41:28;4.60;;;3.30;;
22894;SDS011;11614;52.494;6.976;2023-06-05T14:43:55;3.15;;;2.95;;
22894;SDS011;11614;52.494;6.976;2023-06-05T14:46:21;4.35;;;3.15;;
22894;SDS011;11614;52.494;6.976;2023-06-05T14:48:47;3.95;;;3.10;;
22894;SDS011;11614;52.494;6.976;2023-06-05T14:51:13;3.45;;;3.08;;
22894;SDS011;11614;52.494;6.976;2023-06-05T14:53:39;3.10;;;2.78;;
22894;SDS011;11614;52.494;6.976;2023-06-05T14:56:05;2.40;;;2.20;;
22894;SDS011;11614;52.494;6.976;2023-06-05T14:58:31;3.85;;;3.22;;
22894;SDS011;11614;52.494;6.976;2023-06-05T15:00:57;2.22;;;2.03;;
22894;SDS011;11614;52.494;6.976;2023-06-05T15:03:23;3.75;;;2.83;;
22894;SDS011;11614;52.494;6.976;2023-06-05T15:05:49;5.10;;;3.35;;
22894;SDS011;11614;52.494;6.976;2023-06-05T15:08:20;3.50;;;3.20;;
22894;SDS011;11614;52.494;6.976;2023-06-05T15:10:46;3.45;;;3.25;;
22894;SDS011;11614;52.494;6.976;2023-06-05T15:13:13;3.70;;;3.40;;